createdAt,value
2023-01-13T00:01:10.098Z,96180.59
2023-01-13T00:03:37.296Z,96174.22
2023-01-13T00:06:04.878Z,96171.94
2023-01-13T00:08:32.408Z,96179.47
2023-01-13T00:10:59.668Z,96175.53
2023-01-13T00:13:28.832Z,96169.63
2023-01-13T00:16:00.140Z,96172.00
2023-01-13T00:18:27.464Z,96156.78
2023-01-13T00:21:11.357Z,96160.00
2023-01-13T00:23:38.074Z,96157.84
2023-01-13T00:26:07.864Z,96157.31
2023-01-13T00:28:34.440Z,96158.75
2023-01-13T00:31:09.807Z,96160.22
2023-01-13T00:33:36.917Z,96165.47
2023-01-13T00:36:05.948Z,96160.19
2023-01-13T00:38:34.181Z,96153.94
2023-01-13T00:41:06.511Z,96156.91
2023-01-13T00:43:34.778Z,96156.63
2023-01-13T00:46:02.411Z,96142.25
2023-01-13T00:48:30.069Z,96148.13
2023-01-13T00:50:58.511Z,96147.34
2023-01-13T00:53:26.017Z,96139.63
2023-01-13T00:56:03.882Z,96156.41
2023-01-13T00:58:34.954Z,96163.06
2023-01-13T01:01:03.802Z,96161.41
2023-01-13T01:03:30.931Z,96167.50
2023-01-13T01:06:03.282Z,96168.28
2023-01-13T01:08:29.905Z,96161.47
2023-01-13T01:11:08.976Z,96156.06
2023-01-13T01:13:36.891Z,96150.69
2023-01-13T01:16:09.019Z,96149.00
2023-01-13T01:18:38.243Z,96142.66
2023-01-13T01:21:05.820Z,96145.06
2023-01-13T01:23:33.572Z,96153.22
2023-01-13T01:26:07.224Z,96146.56
2023-01-13T01:28:34.815Z,96144.84
2023-01-13T01:31:07.229Z,96145.19
2023-01-13T01:33:34.118Z,96126.84
2023-01-13T01:36:01.814Z,96117.31
2023-01-13T01:38:28.389Z,96122.31
2023-01-13T01:40:55.033Z,96123.50
2023-01-13T01:43:41.501Z,96119.47
2023-01-13T01:46:08.085Z,96113.63
2023-01-13T01:48:42.526Z,96129.09
2023-01-13T01:51:13.589Z,96122.16
2023-01-13T01:53:41.835Z,96134.72
2023-01-13T01:56:10.882Z,96125.47
2023-01-13T01:58:51.156Z,96117.84
2023-01-13T02:01:18.734Z,96119.19
2023-01-13T02:03:55.654Z,96128.22
2023-01-13T02:06:23.748Z,96121.50
2023-01-13T02:08:51.928Z,96116.53
2023-01-13T02:12:06.266Z,96123.72
2023-01-13T02:14:34.512Z,96116.53
2023-01-13T02:17:08.123Z,96111.72
2023-01-13T02:20:05.581Z,96125.03
2023-01-13T02:22:53.986Z,96120.28
2023-01-13T02:25:48.445Z,96113.84
2023-01-13T02:28:26.943Z,96116.53
2023-01-13T02:31:28.902Z,96112.25
2023-01-13T02:34:09.872Z,96109.06
2023-01-13T02:37:12.729Z,96097.88
2023-01-13T02:39:54.439Z,96096.03
2023-01-13T02:43:06.619Z,96087.50
2023-01-13T02:45:43.461Z,96090.44
2023-01-13T02:48:13.715Z,96081.91
2023-01-13T02:50:49.427Z,96087.25
2023-01-13T02:53:25.216Z,96075.28
2023-01-13T02:55:54.255Z,96064.31
2023-01-13T02:58:26.390Z,96062.47
2023-01-13T03:00:53.372Z,96059.81
2023-01-13T03:03:20.137Z,96051.53
2023-01-13T03:05:49.729Z,96055.22
2023-01-13T03:08:19.291Z,96058.94
2023-01-13T03:11:06.656Z,96056.34
2023-01-13T03:13:39.709Z,96053.69
2023-01-13T03:16:24.064Z,96048.88
2023-01-13T03:19:12.261Z,96044.63
2023-01-13T03:21:57.051Z,96055.56
2023-01-13T03:24:38.948Z,96038.22
2023-01-13T03:27:15.719Z,96046.75
2023-01-13T03:29:54.549Z,96051.56
2023-01-13T03:32:32.524Z,96041.94
2023-01-13T03:35:18.218Z,96033.41
2023-01-13T03:37:51.075Z,96034.47
2023-01-13T03:40:22.524Z,96039.81
2023-01-13T03:43:15.122Z,96033.41
2023-01-13T03:45:43.374Z,96024.34
2023-01-13T03:48:16.727Z,96013.69
2023-01-13T03:50:52.137Z,96014.25
2023-01-13T03:53:28.129Z,96007.56
2023-01-13T03:56:05.712Z,95993.94
2023-01-13T03:58:43.080Z,95992.38
2023-01-13T04:01:18.741Z,95995.59
2023-01-13T04:03:54.331Z,95991.84
2023-01-13T04:06:26.192Z,95989.16
2023-01-13T04:09:03.153Z,95992.59
2023-01-13T04:11:44.247Z,95992.63
2023-01-13T04:14:14.022Z,95989.66
2023-01-13T04:16:41.949Z,95989.16
2023-01-13T04:19:08.583Z,95985.97
2023-01-13T04:21:35.782Z,95983.31
2023-01-13T04:24:02.420Z,95984.63
2023-01-13T04:26:29.022Z,95983.31
2023-01-13T04:28:55.607Z,95992.88
2023-01-13T04:31:22.570Z,95993.47
2023-01-13T04:33:49.190Z,95987.56
2023-01-13T04:36:15.879Z,95981.69
2023-01-13T04:38:42.548Z,95979.03
2023-01-13T04:41:09.159Z,95980.56
2023-01-13T04:43:35.755Z,95983.00
2023-01-13T04:46:02.458Z,95989.66
2023-01-13T04:48:29.080Z,95982.69
2023-01-13T04:50:55.676Z,95988.03
2023-01-13T04:53:22.251Z,95985.94
2023-01-13T04:55:49.785Z,95983.78
2023-01-13T04:58:16.508Z,95973.63
2023-01-13T05:00:43.213Z,95972.56
2023-01-13T05:03:09.971Z,95972.31
2023-01-13T05:05:36.639Z,95969.13
2023-01-13T05:08:03.787Z,95963.03
2023-01-13T05:10:30.586Z,95959.53
2023-01-13T05:13:15.934Z,95974.78
2023-01-13T05:16:01.827Z,95969.47
2023-01-13T05:18:30.716Z,95970.50
2023-01-13T05:20:57.400Z,95969.97
2023-01-13T05:23:42.433Z,95963.56
2023-01-13T05:26:09.120Z,95960.94
2023-01-13T05:28:35.759Z,95959.88
2023-01-13T05:31:02.377Z,95951.59
2023-01-13T05:33:29.023Z,95958.81
2023-01-13T05:35:55.667Z,95952.09
2023-01-13T05:38:22.301Z,95955.34
2023-01-13T05:41:07.193Z,95958.78
2023-01-13T05:43:34.953Z,95956.13
2023-01-13T05:46:09.749Z,95951.81
2023-01-13T05:48:42.264Z,95956.09
2023-01-13T05:51:11.387Z,95955.63
2023-01-13T05:53:40.748Z,95951.84
2023-01-13T05:56:08.582Z,95948.69
2023-01-13T05:58:35.425Z,95942.84
2023-01-13T06:01:07.776Z,95945.97
2023-01-13T06:03:35.082Z,95937.78
2023-01-13T06:06:03.998Z,95943.59
2023-01-13T06:08:31.666Z,95948.13
2023-01-13T06:10:58.257Z,95940.13
2023-01-13T06:13:25.539Z,95939.56
2023-01-13T06:15:55.393Z,95937.97
2023-01-13T06:18:22.047Z,95929.72
2023-01-13T06:20:48.616Z,95940.66
2023-01-13T06:23:15.234Z,95939.63
2023-01-13T06:26:26.680Z,95940.38
2023-01-13T06:28:53.349Z,95941.72
2023-01-13T06:31:20.564Z,95943.03
2023-01-13T06:33:55.344Z,95941.22
2023-01-13T06:36:29.336Z,95937.97
2023-01-13T06:38:59.883Z,95931.59
2023-01-13T06:41:46.692Z,95932.66
2023-01-13T06:44:13.677Z,95917.72
2023-01-13T06:46:40.495Z,95929.97
2023-01-13T06:49:07.386Z,95935.31
2023-01-13T06:51:34.040Z,95934.78
2023-01-13T06:54:00.668Z,95937.97
2023-01-13T06:56:27.294Z,95942.25
2023-01-13T06:58:53.891Z,95941.25
2023-01-13T07:01:20.621Z,95946.31
2023-01-13T07:03:47.333Z,95939.63
2023-01-13T07:06:13.928Z,95934.25
2023-01-13T07:08:40.514Z,95944.41
2023-01-13T07:11:07.152Z,95940.44
2023-01-13T07:13:53.713Z,95945.47
2023-01-13T07:16:20.327Z,95964.97
2023-01-13T07:18:46.885Z,95954.03
2023-01-13T07:21:13.495Z,95952.44
2023-01-13T07:23:41.441Z,95958.28
2023-01-13T07:26:09.626Z,95938.03
2023-01-13T07:28:37.062Z,95947.63
2023-01-13T07:31:03.871Z,95939.09
2023-01-13T07:33:33.540Z,95941.78
2023-01-13T07:36:05.422Z,95942.28
2023-01-13T07:38:33.529Z,95936.94
2023-01-13T07:41:19.491Z,95928.16
2023-01-13T07:43:46.066Z,95936.97
2023-01-13T07:46:12.834Z,95941.50
2023-01-13T07:48:39.474Z,95943.88
2023-01-13T07:51:08.406Z,95945.97
2023-01-13T07:53:36.075Z,95934.22
2023-01-13T07:56:04.528Z,95933.91
2023-01-13T07:58:33.385Z,95928.88
2023-01-13T08:01:00.167Z,95943.28
2023-01-13T08:03:26.992Z,95934.25
2023-01-13T08:05:53.577Z,95937.41
2023-01-13T08:08:20.236Z,95942.25
2023-01-13T08:10:46.867Z,95950.53
2023-01-13T08:13:22.701Z,95931.06
2023-01-13T08:15:58.897Z,95934.78
2023-01-13T08:18:25.485Z,95928.28
2023-01-13T08:20:52.726Z,95927.22
2023-01-13T08:23:20.611Z,95930.91
2023-01-13T08:25:47.695Z,95924.97
2023-01-13T08:28:15.159Z,95922.53
2023-01-13T08:30:42.619Z,95921.72
2023-01-13T08:33:11.251Z,95928.66
2023-01-13T08:35:39.911Z,95931.63
2023-01-13T08:38:08.172Z,95930.75
2023-01-13T08:40:34.897Z,95932.84
2023-01-13T08:43:01.568Z,95936.91
2023-01-13T08:45:28.193Z,95931.81
2023-01-13T08:47:54.874Z,95929.97
2023-01-13T08:50:21.716Z,95925.41
2023-01-13T08:52:48.362Z,95917.31
2023-01-13T08:55:14.955Z,95914.75
2023-01-13T08:57:41.617Z,95926.28
2023-01-13T09:00:09.196Z,95927.06
2023-01-13T09:02:35.809Z,95939.47
2023-01-13T09:05:03.991Z,95954.94
2023-01-13T09:07:31.546Z,95951.09
2023-01-13T09:09:58.373Z,95948.09
2023-01-13T09:12:43.871Z,95950.78
2023-01-13T09:15:10.941Z,95950.66
2023-01-13T09:17:37.536Z,95956.38
2023-01-13T09:20:05.211Z,95954.25
2023-01-13T09:22:31.999Z,95947.88
2023-01-13T09:24:58.613Z,95951.53
2023-01-13T09:27:25.283Z,95945.69
2023-01-13T09:29:51.868Z,95951.88
2023-01-13T09:32:18.474Z,95948.59
2023-01-13T09:35:00.323Z,95948.72
2023-01-13T09:37:37.229Z,95953.25
2023-01-13T09:40:17.150Z,95941.66
2023-01-13T09:43:13.629Z,95936.31
2023-01-13T09:46:05.643Z,95918.59
2023-01-13T09:48:52.018Z,95914.47
2023-01-13T09:51:34.708Z,95929.34
2023-01-13T09:54:16.589Z,95932.03
2023-01-13T09:56:43.693Z,95921.94
2023-01-13T09:59:12.346Z,95919.06
2023-01-13T10:02:00.439Z,95910.41
2023-01-13T10:04:27.925Z,95910.03
2023-01-13T10:07:03.769Z,95911.34
2023-01-13T10:09:33.964Z,95923.38
2023-01-13T10:12:21.276Z,95932.47
2023-01-13T10:14:57.157Z,95916.16
2023-01-13T10:17:23.682Z,95907.00
2023-01-13T10:20:00.296Z,95902.25
2023-01-13T10:22:51.915Z,95901.59
2023-01-13T10:25:24.731Z,95918.34
2023-01-13T10:27:54.229Z,95910.81
2023-01-13T10:30:32.929Z,95930.78
2023-01-13T10:33:11.493Z,95925.72
2023-01-13T10:36:17.982Z,95917.72
2023-01-13T10:38:47.095Z,95912.94
2023-01-13T10:41:25.420Z,95917.94
2023-01-13T10:43:51.939Z,95930.13
2023-01-13T10:46:20.497Z,95934.78
2023-01-13T10:48:53.346Z,95932.06
2023-01-13T10:51:22.183Z,95937.94
2023-01-13T10:53:57.784Z,95948.66
2023-01-13T10:56:27.640Z,95952.91
2023-01-13T10:59:29.897Z,95944.63
2023-01-13T11:02:26.304Z,95925.19
2023-01-13T11:04:53.401Z,95926.00
2023-01-13T11:07:33.915Z,95937.13
2023-01-13T11:10:09.412Z,95934.13
2023-01-13T11:13:01.543Z,95919.31
2023-01-13T11:16:00.354Z,95916.38
2023-01-13T11:19:01.979Z,95904.28
2023-01-13T11:21:39.375Z,95914.97
2023-01-13T11:24:15.040Z,95918.91
2023-01-13T11:27:05.790Z,95922.75
2023-01-13T11:29:56.672Z,95924.00
2023-01-13T11:32:24.772Z,95922.00
2023-01-13T11:35:00.005Z,95914.22
2023-01-13T11:37:31.306Z,95894.16
2023-01-13T11:40:06.849Z,95889.59
2023-01-13T11:42:42.028Z,95887.72
2023-01-13T11:45:17.724Z,95880.38
2023-01-13T11:47:51.233Z,95865.41
2023-01-13T11:50:34.704Z,95853.28
2023-01-13T11:53:10.527Z,95858.53
2023-01-13T11:56:06.366Z,95851.91
2023-01-13T11:59:06.827Z,95852.59
2023-01-13T12:01:57.870Z,95858.81
2023-01-13T12:04:39.325Z,95853.50
2023-01-13T12:08:04.347Z,95855.28
2023-01-13T12:10:49.031Z,95849.19
2023-01-13T12:13:46.571Z,95855.16
2023-01-13T12:16:28.519Z,95847.09
2023-01-13T12:19:24.673Z,95834.19
2023-01-13T12:21:57.267Z,95833.94
2023-01-13T12:24:40.836Z,95820.09
2023-01-13T12:27:24.413Z,95824.81
2023-01-13T12:29:58.370Z,95812.44
2023-01-13T12:32:36.656Z,95824.94
2023-01-13T12:35:08.689Z,95814.56
2023-01-13T12:37:35.204Z,95811.19
2023-01-13T12:40:39.205Z,95814.56
2023-01-13T12:43:37.524Z,95813.72
2023-01-13T12:46:19.130Z,95827.06
2023-01-13T12:48:54.734Z,95811.13
2023-01-13T12:51:23.134Z,95815.22
2023-01-13T12:53:49.914Z,95808.31
2023-01-13T12:56:29.848Z,95805.81
2023-01-13T12:59:15.382Z,95796.13
2023-01-13T13:01:42.229Z,95800.25
2023-01-13T13:04:41.918Z,95802.72
2023-01-13T13:07:15.524Z,95801.59
2023-01-13T13:09:56.167Z,95810.44
2023-01-13T13:13:07.543Z,95818.72
2023-01-13T13:15:35.992Z,95826.19
2023-01-13T13:18:06.269Z,95831.38
2023-01-13T13:20:56.796Z,95824.53
2023-01-13T13:23:26.376Z,95820.38
2023-01-13T13:26:25.052Z,95826.50
2023-01-13T13:29:16.434Z,95822.81
2023-01-13T13:32:01.626Z,95846.94
2023-01-13T13:34:32.583Z,95843.72
2023-01-13T13:37:08.214Z,95847.41
2023-01-13T13:39:53.945Z,95850.44
2023-01-13T13:42:43.160Z,95833.84
2023-01-13T13:45:36.603Z,95838.94
2023-01-13T13:48:28.304Z,95854.63
2023-01-13T13:51:02.675Z,95853.81
2023-01-13T13:53:39.550Z,95861.84
2023-01-13T13:56:16.241Z,95863.72
2023-01-13T13:58:42.973Z,95876.78
2023-01-13T14:01:33.000Z,95866.34
2023-01-13T14:04:06.087Z,95878.72
2023-01-13T14:06:33.187Z,95876.66
2023-01-13T14:08:59.877Z,95875.22
2023-01-13T14:11:27.770Z,95888.19
2023-01-13T14:14:13.521Z,95890.94
2023-01-13T14:16:41.311Z,95885.34
2023-01-13T14:19:23.164Z,95887.75
2023-01-13T14:21:49.818Z,95892.03
2023-01-13T14:24:17.669Z,95886.28
2023-01-13T14:26:44.481Z,95888.34
2023-01-13T14:29:18.531Z,95893.09
2023-01-13T14:31:45.499Z,95899.34
2023-01-13T14:34:31.426Z,95907.03
2023-01-13T14:37:00.700Z,95895.53
2023-01-13T14:39:40.007Z,95911.03
2023-01-13T14:42:13.256Z,95914.47
2023-01-13T14:44:43.911Z,95922.84
2023-01-13T14:47:28.023Z,95921.63
2023-01-13T14:50:06.196Z,95919.25
2023-01-13T14:52:37.338Z,95934.59
2023-01-13T14:55:10.245Z,95941.19
2023-01-13T14:57:41.766Z,95947.56
2023-01-13T15:00:14.342Z,95993.28
2023-01-13T15:02:53.579Z,96018.19
2023-01-13T15:05:20.211Z,95976.28
2023-01-13T15:07:59.894Z,95983.81
2023-01-13T15:10:32.744Z,95978.41
2023-01-13T15:13:03.048Z,95991.50
2023-01-13T15:15:39.826Z,95994.78
2023-01-13T15:18:13.181Z,96010.94
2023-01-13T15:20:41.288Z,95996.47
2023-01-13T15:23:08.456Z,95986.78
2023-01-13T15:25:37.140Z,95998.72
2023-01-13T15:28:05.051Z,96004.44
2023-01-13T15:30:32.678Z,96023.13
2023-01-13T15:33:00.033Z,96027.44
2023-01-13T15:35:28.798Z,96040.56
2023-01-13T15:37:57.232Z,96065.50
2023-01-13T15:40:32.700Z,96070.94
2023-01-13T15:43:17.859Z,96063.00
2023-01-13T15:46:04.421Z,96060.31
2023-01-13T15:48:32.922Z,96075.38
2023-01-13T15:51:01.133Z,96072.47
2023-01-13T15:53:29.031Z,96079.84
2023-01-13T15:55:57.885Z,96091.91
2023-01-13T15:58:28.417Z,96100.81
2023-01-13T16:00:55.588Z,96093.25
2023-01-13T16:03:22.667Z,96110.81
2023-01-13T16:05:49.294Z,96163.56
2023-01-13T16:08:17.867Z,96145.06
2023-01-13T16:10:45.047Z,96179.41
2023-01-13T16:13:12.649Z,96185.28
2023-01-13T16:15:47.136Z,96199.75
2023-01-13T16:18:24.325Z,96224.59
2023-01-13T16:20:55.304Z,96215.78
2023-01-13T16:23:22.841Z,96221.66
2023-01-13T16:25:50.080Z,96211.00
2023-01-13T16:28:20.902Z,96205.63
2023-01-13T16:30:47.609Z,96213.06
2023-01-13T16:33:14.432Z,96217.81
2023-01-13T16:36:09.371Z,96225.28
2023-01-13T16:38:27.664Z,96244.47
2023-01-13T16:40:57.205Z,96243.13
2023-01-13T16:43:23.786Z,96237.53
2023-01-13T16:45:50.397Z,96240.50
2023-01-13T16:48:20.158Z,96244.53
2023-01-13T16:50:46.936Z,96260.06
2023-01-13T16:53:13.542Z,96275.03
2023-01-13T16:55:42.221Z,96278.25
2023-01-13T16:58:20.483Z,96292.94
2023-01-13T17:00:47.490Z,96300.72
2023-01-13T17:03:15.387Z,96312.97
2023-01-13T17:05:43.422Z,96337.00
2023-01-13T17:08:17.669Z,96342.25
2023-01-13T17:10:45.666Z,96339.69
2023-01-13T17:13:16.401Z,96344.72
2023-01-13T17:15:44.029Z,96342.00
2023-01-13T17:18:11.609Z,96347.78
2023-01-13T17:20:38.203Z,96347.91
2023-01-13T17:23:04.817Z,96344.47
2023-01-13T17:25:31.410Z,96358.69
2023-01-13T17:27:58.303Z,96366.56
2023-01-13T17:30:24.894Z,96350.59
2023-01-13T17:32:51.526Z,96337.31
2023-01-13T17:35:22.904Z,96339.97
2023-01-13T17:37:49.498Z,96355.94
2023-01-13T17:40:17.095Z,96371.22
2023-01-13T17:42:43.710Z,96379.28
2023-01-13T17:45:11.980Z,96384.50
2023-01-13T17:47:38.754Z,96394.41
2023-01-13T17:50:05.847Z,96397.78
2023-01-13T17:52:34.469Z,96390.78
2023-01-13T17:55:01.126Z,96364.16
2023-01-13T17:57:28.007Z,96363.00
2023-01-13T17:59:54.856Z,96362.34
2023-01-13T18:02:21.580Z,96377.16
2023-01-13T18:04:48.289Z,96385.81
2023-01-13T18:07:14.846Z,96381.00
2023-01-13T18:09:41.459Z,96391.94
2023-01-13T18:12:08.194Z,96378.44
2023-01-13T18:14:34.968Z,96379.03
2023-01-13T18:17:01.606Z,96375.75
2023-01-13T18:19:46.683Z,96381.19
2023-01-13T18:22:32.280Z,96393.50
2023-01-13T18:25:17.799Z,96400.91
2023-01-13T18:27:44.541Z,96409.81
2023-01-13T18:30:12.518Z,96385.22
2023-01-13T18:32:39.215Z,96376.28
2023-01-13T18:35:10.176Z,96387.84
2023-01-13T18:37:40.362Z,96383.09
2023-01-13T18:40:09.497Z,96391.19
2023-01-13T18:42:53.617Z,96392.34
2023-01-13T18:45:31.547Z,96384.91
2023-01-13T18:48:00.879Z,96385.16
2023-01-13T18:50:28.330Z,96381.19
2023-01-13T18:52:55.095Z,96378.53
2023-01-13T18:55:22.472Z,96372.72
2023-01-13T18:57:49.462Z,96364.44
2023-01-13T19:00:19.332Z,96375.41
2023-01-13T19:02:47.447Z,96374.59
2023-01-13T19:05:14.404Z,96367.91
2023-01-13T19:07:41.112Z,96373.25
2023-01-13T19:10:09.781Z,96385.50
2023-01-13T19:12:36.712Z,96390.22
2023-01-13T19:15:03.498Z,96391.66
2023-01-13T19:17:34.808Z,96387.63
2023-01-13T19:20:01.679Z,96381.25
2023-01-13T19:22:32.717Z,96374.88
2023-01-13T19:25:01.113Z,96378.09
2023-01-13T19:27:28.281Z,96389.06
2023-01-13T19:29:58.065Z,96389.31
2023-01-13T19:32:24.842Z,96395.22
2023-01-13T19:34:51.695Z,96397.56
2023-01-13T19:37:19.057Z,96397.31
2023-01-13T19:39:45.654Z,96404.75
2023-01-13T19:42:31.836Z,96396.22
2023-01-13T19:45:16.930Z,96400.97
2023-01-13T19:47:45.499Z,96408.50
2023-01-13T19:50:13.600Z,96410.59
2023-01-13T19:52:41.444Z,96415.34
2023-01-13T19:55:09.538Z,96420.69
2023-01-13T19:57:36.987Z,96411.31
2023-01-13T20:00:06.426Z,96415.34
2023-01-13T20:02:33.107Z,96406.88
2023-01-13T20:05:01.839Z,96407.34
2023-01-13T20:07:30.643Z,96404.16
2023-01-13T20:09:57.513Z,96412.22
2023-01-13T20:12:25.829Z,96425.50
2023-01-13T20:14:52.579Z,96422.66
2023-01-13T20:17:21.328Z,96422.41
2023-01-13T20:19:48.341Z,96422.94
2023-01-13T20:22:15.303Z,96427.22
2023-01-13T20:24:42.201Z,96428.81
2023-01-13T20:27:08.915Z,96433.31
2023-01-13T20:29:36.331Z,96433.09
2023-01-13T20:32:03.340Z,96428.81
2023-01-13T20:34:29.985Z,96427.72
2023-01-13T20:36:56.705Z,96434.03
2023-01-13T20:39:26.503Z,96445.50
2023-01-13T20:42:12.368Z,96451.94
2023-01-13T20:44:39.234Z,96456.19
2023-01-13T20:47:06.608Z,96453.22
2023-01-13T20:49:36.025Z,96451.13
2023-01-13T20:52:09.105Z,96449.00
2023-01-13T20:54:40.488Z,96445.47
2023-01-13T20:57:09.755Z,96453.88
2023-01-13T20:59:37.707Z,96443.66
2023-01-13T21:02:06.471Z,96438.38
2023-01-13T21:04:33.653Z,96438.66
2023-01-13T21:07:00.246Z,96443.22
2023-01-13T21:09:27.371Z,96447.09
2023-01-13T21:12:13.117Z,96446.09
2023-01-13T21:14:58.503Z,96453.03
2023-01-13T21:17:43.987Z,96455.09
2023-01-13T21:20:12.813Z,96452.22
2023-01-13T21:22:39.619Z,96459.19
2023-01-13T21:25:07.039Z,96467.75
2023-01-13T21:27:34.742Z,96465.34
2023-01-13T21:30:01.320Z,96463.22
2023-01-13T21:32:27.937Z,96461.34
2023-01-13T21:34:54.527Z,96465.69
2023-01-13T21:37:22.133Z,96468.91
2023-01-13T21:39:48.698Z,96476.63
2023-01-13T21:42:34.809Z,96477.97
2023-01-13T21:45:20.710Z,96463.50
2023-01-13T21:47:48.281Z,96460.19
2023-01-13T21:50:26.540Z,96457.88
2023-01-13T21:52:53.152Z,96463.94
2023-01-13T21:55:25.437Z,96461.94
2023-01-13T21:57:58.213Z,96451.84
2023-01-13T22:00:30.735Z,96452.31
2023-01-13T22:02:58.635Z,96455.03
2023-01-13T22:05:26.548Z,96466.22
2023-01-13T22:07:53.416Z,96466.06
2023-01-13T22:10:22.528Z,96471.16
2023-01-13T22:12:52.011Z,96475.97
2023-01-13T22:15:18.682Z,96469.31
2023-01-13T22:17:48.305Z,96468.63
2023-01-13T22:20:15.329Z,96482.34
2023-01-13T22:22:42.007Z,96486.50
2023-01-13T22:25:11.243Z,96491.06
2023-01-13T22:27:43.206Z,96489.34
2023-01-13T22:30:18.274Z,96492.63
2023-01-13T22:32:46.056Z,96484.69
2023-01-13T22:35:14.750Z,96494.84
2023-01-13T22:37:41.831Z,96502.88
2023-01-13T22:40:10.718Z,96521.06
2023-01-13T22:42:42.078Z,96528.31
2023-01-13T22:45:13.823Z,96531.41
2023-01-13T22:47:40.815Z,96536.31
2023-01-13T22:50:08.298Z,96558.41
2023-01-13T22:52:35.234Z,96560.47
2023-01-13T22:55:01.978Z,96564.34
2023-01-13T22:57:36.716Z,96569.03
2023-01-13T23:00:14.974Z,96567.59
2023-01-13T23:02:41.735Z,96573.78
2023-01-13T23:05:08.809Z,96581.81
2023-01-13T23:07:36.227Z,96587.13
2023-01-13T23:10:03.685Z,96591.41
2023-01-13T23:12:30.283Z,96591.06
2023-01-13T23:14:56.863Z,96598.00
2023-01-13T23:17:23.456Z,96594.56
2023-01-13T23:19:50.021Z,96598.00
2023-01-13T23:22:16.615Z,96598.91
2023-01-13T23:24:43.231Z,96586.84
2023-01-13T23:27:09.828Z,96562.19
2023-01-13T23:29:36.722Z,96570.41
2023-01-13T23:32:03.398Z,96573.06
2023-01-13T23:34:29.962Z,96577.97
2023-01-13T23:36:56.542Z,96588.59
2023-01-13T23:39:24.585Z,96598.56
2023-01-13T23:41:51.259Z,96595.91
2023-01-13T23:44:17.909Z,96592.69
2023-01-13T23:46:44.543Z,96601.47
2023-01-13T23:49:11.146Z,96608.56
2023-01-13T23:51:37.811Z,96611.13
2023-01-13T23:54:04.620Z,96614.22
2023-01-13T23:56:31.527Z,96617.41
2023-01-13T23:58:58.775Z,96621.38
